Custom Search

Airport METAR Reports

 

YMAV - Avalon Airport, Australia
Distance from station: 0 0km
Updated: 23/11/2017 03:30
Partly cloudy
Partly cloudy
 Wind from WSW
Wind: WSW 9 km/h
Temperature: 15°C
Dew Point: 15°C
Humidity: 100%
Barometer: 1011 hPa
Clouds: Partly cloudy
Cloud details: Partly cloudy 183 m
2017/11/22 16:30 YMAV 221630Z AUTO 24005KT //// // SCT006 15/15 Q1011
YMML - Melbourne Intl A, Australia
Distance from station: NE 50km
Updated: 23/11/2017 03:00
Clear
Clear
 Wind from N
Wind: N 9 km/h
Temperature: 14°C
Dew Point: 9°C
Humidity: 72%
Barometer: 1012 hPa
Summary: Clear
Visibility: greater than 10 km
2017/11/22 16:00 YMML 221600Z 35005KT CAVOK 14/09 Q1012 NOSIG
YMEN - Melbourne/Essend, Australia
Distance from station: NE 51km
Updated: 23/11/2017 03:00
Clear
Clear
 Wind from WNW
Wind: WNW 11 km/h
Temperature: 16°C
Dew Point: 13°C
Humidity: 83%
Barometer: 1011 hPa
Clouds: Clear
Visibility: 10 km
2017/11/22 16:00 YMEN 221600Z AUTO 29006KT 9999 // NCD 16/13 Q1011
 
YWGT - Wangaratta Arp, Australia
Distance from station: NE 241km
Updated: 23/11/2017 03:00
Clear
Clear
 Wind from SSW
Wind: SSW 7 km/h
Temperature: 13°C
Dew Point: 11°C
Humidity: 88%
Barometer: 1012 hPa
Clouds: Clear
Visibility: 10 km
2017/11/22 16:00 YWGT 221600Z AUTO 21004KT 9999 // NCD 13/11 Q1012
YMAY - Albury Airport, Australia
Distance from station: NE 308km
Updated: 23/11/2017 03:00
Partly cloudy
Partly cloudy
 Wind from E
Wind: E 2 km/h
Temperature: 19°C
Dew Point: 13°C
Humidity: 68%
Barometer: 1013 hPa
Clouds: Partly cloudy
Visibility: 10 km
Cloud details: Partly cloudy 3505 m
2017/11/22 16:00 YMAY 221600Z AUTO 10001KT 9999 // SCT115 19/13 Q1013
YMTG - Mount Gambier, Australia
Distance from station: W 326km
Updated: 23/11/2017 03:00
Clear
Clear
 Wind from NE
Wind: NE 11 km/h
Temperature: 19°C
Dew Point: 10°C
Humidity: 56%
Barometer: 1008 hPa
Clouds: Clear
Visibility: 10 km
2017/11/22 16:00 YMTG 221600Z AUTO 05006KT 9999 // NCD 19/10 Q1008
 
YNAR - Narrandera, Australia
Distance from station: NNE 413km
Updated: 23/11/2017 03:00

 Wind from calm
Wind: Calm
Temperature: 18°C
Dew Point: 6°C
Humidity: 46%
Barometer: 1012 hPa
2017/11/22 16:00 YNAR 221600Z AUTO 00000KT //// // ////// 18/06 Q1012
YSWG - Wagga Wagga(Cv/M, Australia
Distance from station: NE 418km
Updated: 23/11/2017 03:00
Clear
Clear
 Wind from E
Wind: E 17 km/h
Temperature: 19°C
Dew Point: 12°C
Humidity: 64%
Barometer: 1013 hPa
Clouds: Clear
Visibility: 10 km
2017/11/22 16:00 YSWG 221600Z AUTO 08009KT 9999 // NCD 19/12 Q1013
YCOM - Cooma Snowy Mtns, Australia
Distance from station: ENE 441km
Updated: 23/11/2017 03:15
Partly cloudy
Partly cloudy
 Wind from NE
Wind: NE 17 km/h
Temperature: 10°C
Wind Chill: 8°C
Dew Point: 10°C
Humidity: 100%
Barometer: 1017 hPa
Clouds: Partly cloudy
Visibility: 10 km
Cloud details: Partly cloudy 3505 m
2017/11/22 16:15 YCOM 221615Z AUTO 04009KT 9999 // SCT115 10/10 Q1017
 
YGTH - Griffith Arpt, Australia
Distance from station: NNE 444km
Updated: 23/11/2017 03:00
Clear
Clear
 Wind from N
Wind: N 7 km/h
Temperature: 21°C
Dew Point: 5°C
Humidity: 35%
Barometer: 1011 hPa
Clouds: Clear
Visibility: 10 km
2017/11/22 16:00 YGTH 221600Z AUTO 36004KT 9999 // NCD 21/05 Q1011
YMLT - Launceston Airpo, Australia
Distance from station: SSE 451km
Updated: 23/11/2017 03:00
Clear
Clear
 Wind from NE
Wind: NE 9 km/h
Temperature: 12°C
Dew Point: 10°C
Humidity: 88%
Barometer: 1017 hPa
Clouds: Clear
Visibility: 10 km
2017/11/22 16:00 YMLT 221600Z AUTO 04005KT 9999 // NCD 12/10 Q1017
YMIA - Mildura Arpt, Australia
Distance from station: NNW 474km
Updated: 23/11/2017 03:00
Clear
Clear
 Wind from ENE
Wind: ENE 9 km/h
Temperature: 21°C
Dew Point: 6°C
Humidity: 38%
Barometer: 1008 hPa
Clouds: Clear
Visibility: 10 km
2017/11/22 16:00 YMIA 221600Z AUTO 07005KT 9999 // NCD 21/06 Q1008
 
YMER - Merimbula Arpt, Australia
Distance from station: ENE 494km
Updated: 23/11/2017 03:00
Partly cloudy
Partly cloudy
 Wind from NNE
Wind: NNE 13 km/h
Temperature: 18°C
Dew Point: 15°C
Humidity: 83%
Barometer: 1015 hPa
Clouds: Partly cloudy
Visibility: 10 km
Cloud details: Partly cloudy 2682 m
2017/11/22 16:00 YMER 221600Z AUTO 03007KT 9999 // SCT088 18/15 Q1015
YSCB - Canberra (civ/Mi, Australia
Distance from station: NE 518km
Updated: 23/11/2017 03:30
Mostly cloudy
Mostly cloudy
 Wind from NE
Wind: NE 11 km/h
Temperature: 15°C
Dew Point: 11°C
Humidity: 77%
Barometer: 1017 hPa
Clouds: Mostly cloudy
Visibility: 10 km
Cloud details: Mostly cloudy 701 m
2017/11/22 16:30 YSCB 221630Z AUTO 05006KT 9999 // BKN023 15/11 Q1017
YMHB - Hobart/Tasmania, Australia
Distance from station: SSE 590km
Updated: 23/11/2017 03:00
Clear
Clear
 Wind from N
Wind: N 13 km/h
Temperature: 16°C
Dew Point: 12°C
Humidity: 77%
Barometer: 1015 hPa
Summary: Clear
Visibility: greater than 10 km
2017/11/22 16:00 YMHB 221600Z 36007KT CAVOK 16/12 Q1015